メインページ
METAR-TAF:

METAR-TAF

空港 :

百里飛行場, 日本

緯度: 36-11N, 経度: 140-25E, 海抜: 32m

現時点の気象観測

当レポートは23分前の13:00(UTC)に作成
東/南東の風 3kt
気温 21°C
湿度 78%
気圧 1004 hPa
視程10km以上
高度3000ftの雲はほとんどない
高度16000ftの千切れ雲あり
千切れ雲あり

METAR: RJAH 181300Z 11003KT 9999 FEW030 BKN160 BKN/// 21/17 Q1004

時間: 22:23 (13:23 UTC)

予報

当レポートは2時間18分前の11:05(UTC)に作成
予報は18日の 12時(UTC)から 19日の 18時(UTC)まで有効
東/北東の風 4kt
視程10km以上
高度2000ftの雲はほとんどない
19日の 00時(UTC)から 19日の 03時(UTC)まで徐々に
の風 12kt

TAF: RJAH 181105Z 1812/1918 06004KT 9999 FEW020 BECMG 1900/1903 18012KT

4,000以上の空港の気象観測と天気予報(METAR報とTAF報)

利用可能な観測所は地図上に黄色い丸と赤い丸で示す。

丸の上にカーソルを重ねると観測所名を参照できる。

次にクリックすると気象観測と天気予報を参照できる。

マップの切り替え:黒色「×」印の緑ボタンをクリックして拡大、「-」印の緑ボタンをクリックして縮小、緑色の三角印をクリックして隣りの地図に切り替え


METAR-TAF: